createdAt,value
2017-07-29T00:00:54.283Z,0
2017-07-29T00:01:54.605Z,0
2017-07-29T00:02:54.596Z,0
2017-07-29T00:03:54.284Z,0
2017-07-29T00:04:54.601Z,0
2017-07-29T00:05:54.314Z,0
2017-07-29T00:06:54.296Z,0
2017-07-29T00:07:54.306Z,0
2017-07-29T00:08:54.353Z,0
2017-07-29T00:09:54.607Z,0
2017-07-29T00:10:54.177Z,0
2017-07-29T00:11:54.165Z,0
2017-07-29T00:12:54.606Z,0
2017-07-29T00:13:54.332Z,0
2017-07-29T00:14:54.625Z,0
2017-07-29T00:15:54.612Z,0
2017-07-29T00:16:54.626Z,0
2017-07-29T00:17:54.014Z,0
2017-07-29T00:18:54.322Z,0
2017-07-29T00:19:54.639Z,0
2017-07-29T00:20:54.332Z,0
2017-07-29T00:21:54.328Z,0
2017-07-29T00:22:54.648Z,0
2017-07-29T00:23:54.647Z,0
2017-07-29T00:24:54.641Z,0
2017-07-29T00:25:54.659Z,0
2017-07-29T00:26:54.031Z,0
2017-07-29T00:27:54.643Z,0
2017-07-29T00:28:54.397Z,0
2017-07-29T00:29:54.352Z,0
2017-07-29T00:30:54.345Z,0
2017-07-29T00:31:54.651Z,0
2017-07-29T00:32:54.660Z,0
2017-07-29T00:33:54.667Z,0
2017-07-29T00:34:54.358Z,0
2017-07-29T00:35:54.654Z,0
2017-07-29T00:36:54.658Z,0
2017-07-29T00:37:54.658Z,0
2017-07-29T00:38:54.666Z,0
2017-07-29T00:39:54.371Z,0
2017-07-29T00:40:54.681Z,0
2017-07-29T00:41:54.693Z,0
2017-07-29T00:42:54.076Z,0
2017-07-29T00:43:54.978Z,0
2017-07-29T00:44:54.676Z,0
2017-07-29T00:45:54.683Z,0
2017-07-29T00:46:54.071Z,0
2017-07-29T00:47:54.683Z,0
2017-07-29T00:48:54.380Z,0
2017-07-29T00:49:54.372Z,0
2017-07-29T00:50:54.685Z,0
2017-07-29T00:51:54.687Z,0
2017-07-29T00:52:54.385Z,0
2017-07-29T00:53:54.681Z,0
2017-07-29T00:54:54.777Z,0
2017-07-29T00:55:54.687Z,0
2017-07-29T00:56:54.387Z,0
2017-07-29T00:57:54.391Z,0
2017-07-29T00:58:54.697Z,0
2017-07-29T00:59:54.389Z,0
2017-07-29T01:00:54.699Z,0
2017-07-29T01:01:54.399Z,0
2017-07-29T01:02:54.714Z,0
2017-07-29T01:03:54.704Z,0
2017-07-29T01:04:54.718Z,0
2017-07-29T01:05:54.713Z,0
2017-07-29T01:06:54.721Z,0
2017-07-29T01:07:54.704Z,0
2017-07-29T01:08:54.714Z,0
2017-07-29T01:09:54.150Z,0
2017-07-29T01:10:54.408Z,0
2017-07-29T01:11:54.424Z,0
2017-07-29T01:12:54.710Z,0
2017-07-29T01:13:54.718Z,0
2017-07-29T01:14:54.715Z,0
2017-07-29T01:15:54.717Z,0
2017-07-29T01:16:54.770Z,0
2017-07-29T01:17:54.436Z,0
2017-07-29T01:18:54.725Z,0
2017-07-29T01:19:54.758Z,0
2017-07-29T01:20:54.429Z,0
2017-07-29T01:21:54.730Z,0
2017-07-29T01:22:54.429Z,0
2017-07-29T01:23:54.736Z,0
2017-07-29T01:24:54.749Z,0
2017-07-29T01:25:54.739Z,0
2017-07-29T01:26:54.742Z,0
2017-07-29T01:27:54.737Z,0
2017-07-29T01:28:54.446Z,0
2017-07-29T01:29:57.597Z,0
2017-07-29T01:30:54.441Z,0
2017-07-29T01:31:54.746Z,0
2017-07-29T01:32:54.749Z,0
2017-07-29T01:33:54.752Z,0
2017-07-29T01:34:54.765Z,0
2017-07-29T01:35:54.453Z,0
2017-07-29T01:36:54.749Z,0
2017-07-29T01:37:54.758Z,0
2017-07-29T01:38:54.757Z,0
2017-07-29T01:39:54.763Z,0
2017-07-29T01:40:54.760Z,0
2017-07-29T01:41:54.762Z,0
2017-07-29T01:42:54.789Z,0
2017-07-29T01:43:54.462Z,0
2017-07-29T01:44:56.573Z,0
2017-07-29T01:45:54.767Z,0
2017-07-29T01:46:54.804Z,0
2017-07-29T01:47:54.772Z,0
2017-07-29T01:48:54.770Z,0
2017-07-29T01:49:54.479Z,0
2017-07-29T01:50:54.479Z,0
2017-07-29T01:51:54.777Z,0
2017-07-29T01:52:54.778Z,0
2017-07-29T01:53:54.478Z,0
2017-07-29T01:54:54.475Z,0
2017-07-29T01:55:54.781Z,0
2017-07-29T01:56:54.784Z,0
2017-07-29T01:57:54.785Z,0
2017-07-29T01:58:54.792Z,0
2017-07-29T01:59:56.345Z,0
2017-07-29T02:00:54.797Z,0
2017-07-29T02:01:54.828Z,0
2017-07-29T02:02:54.796Z,0
2017-07-29T02:03:54.794Z,0
2017-07-29T02:04:54.811Z,0
2017-07-29T02:05:54.801Z,0
2017-07-29T02:06:54.812Z,0
2017-07-29T02:07:54.804Z,0
2017-07-29T02:08:54.802Z,0
2017-07-29T02:09:54.502Z,0
2017-07-29T02:10:54.805Z,0
2017-07-29T02:11:54.807Z,0
2017-07-29T02:12:54.807Z,0
2017-07-29T02:13:54.815Z,0
2017-07-29T02:14:54.807Z,0
2017-07-29T02:15:54.779Z,0
2017-07-29T02:16:54.511Z,0
2017-07-29T02:17:54.815Z,0
2017-07-29T02:18:54.514Z,0
2017-07-29T02:19:54.818Z,0
2017-07-29T02:20:54.519Z,0
2017-07-29T02:21:54.825Z,0
2017-07-29T02:22:54.818Z,0
2017-07-29T02:23:54.836Z,0
2017-07-29T02:24:54.827Z,0
2017-07-29T02:25:54.528Z,0
2017-07-29T02:26:54.834Z,0
2017-07-29T02:27:54.533Z,0
2017-07-29T02:28:54.832Z,0
2017-07-29T02:29:54.834Z,0
2017-07-29T02:30:55.337Z,0
2017-07-29T02:31:54.854Z,0
2017-07-29T02:32:54.539Z,0
2017-07-29T02:33:54.839Z,0
2017-07-29T02:34:54.850Z,0
2017-07-29T02:35:54.238Z,0
2017-07-29T02:36:54.843Z,0
2017-07-29T02:37:54.543Z,0
2017-07-29T02:38:54.847Z,0
2017-07-29T02:39:54.859Z,0
2017-07-29T02:40:54.850Z,0
2017-07-29T02:41:54.892Z,0
2017-07-29T02:42:54.252Z,0
2017-07-29T02:43:54.854Z,0
2017-07-29T02:44:54.851Z,0
2017-07-29T02:45:55.416Z,0
2017-07-29T02:46:54.888Z,0
2017-07-29T02:47:54.860Z,0
2017-07-29T02:48:54.861Z,0
2017-07-29T02:49:54.289Z,0
2017-07-29T02:50:54.912Z,0
2017-07-29T02:51:54.867Z,0
2017-07-29T02:52:54.872Z,0
2017-07-29T02:53:54.865Z,0
2017-07-29T02:54:54.873Z,0
2017-07-29T02:55:54.864Z,0
2017-07-29T02:56:54.264Z,0
2017-07-29T02:57:54.572Z,0
2017-07-29T02:58:54.884Z,0
2017-07-29T02:59:54.870Z,0
2017-07-29T03:00:54.933Z,0
2017-07-29T03:01:54.575Z,0
2017-07-29T03:02:54.885Z,0
2017-07-29T03:03:54.880Z,0
2017-07-29T03:04:54.588Z,0
2017-07-29T03:05:54.604Z,0
2017-07-29T03:06:54.880Z,0
2017-07-29T03:07:54.889Z,0
2017-07-29T03:08:54.884Z,0
2017-07-29T03:09:54.590Z,0
2017-07-29T03:10:54.588Z,0
2017-07-29T03:11:54.899Z,0
2017-07-29T03:12:54.886Z,4
2017-07-29T03:13:54.888Z,4
2017-07-29T03:14:54.890Z,4
2017-07-29T03:15:55.395Z,0
2017-07-29T03:16:54.608Z,4
2017-07-29T03:17:54.898Z,4
2017-07-29T03:18:54.892Z,4
2017-07-29T03:19:54.600Z,4
2017-07-29T03:20:54.895Z,8
2017-07-29T03:21:54.911Z,4
2017-07-29T03:22:54.618Z,8
2017-07-29T03:23:54.919Z,8
2017-07-29T03:24:54.915Z,12
2017-07-29T03:25:54.601Z,8
2017-07-29T03:26:54.917Z,12
2017-07-29T03:27:54.631Z,12
2017-07-29T03:28:54.910Z,20
2017-07-29T03:29:54.916Z,24
2017-07-29T03:30:54.917Z,20
2017-07-29T03:31:54.921Z,28
2017-07-29T03:32:54.918Z,32
2017-07-29T03:33:54.922Z,36
2017-07-29T03:34:54.921Z,40
2017-07-29T03:35:54.920Z,48
2017-07-29T03:36:54.921Z,52
2017-07-29T03:37:54.620Z,60
2017-07-29T03:38:54.920Z,68
2017-07-29T03:39:54.926Z,80
2017-07-29T03:40:54.920Z,84
2017-07-29T03:41:54.319Z,96
2017-07-29T03:42:54.929Z,112
2017-07-29T03:43:54.925Z,120
2017-07-29T03:44:54.925Z,132
2017-07-29T03:45:56.242Z,148
2017-07-29T03:46:54.626Z,160
2017-07-29T03:47:54.928Z,176
2017-07-29T03:48:54.928Z,196
2017-07-29T03:49:54.638Z,212
2017-07-29T03:50:54.926Z,232
2017-07-29T03:51:54.931Z,252
2017-07-29T03:52:54.938Z,268
2017-07-29T03:53:54.933Z,292
2017-07-29T03:54:54.936Z,312
2017-07-29T03:55:54.935Z,340
2017-07-29T03:56:54.930Z,368
2017-07-29T03:57:54.941Z,392
2017-07-29T03:58:54.931Z,424
2017-07-29T03:59:54.935Z,452
2017-07-29T04:00:55.958Z,480
2017-07-29T04:01:54.941Z,512
2017-07-29T04:02:54.953Z,548
2017-07-29T04:03:54.946Z,584
2017-07-29T04:04:54.947Z,616
2017-07-29T04:05:54.943Z,656
2017-07-29T04:06:54.951Z,692
2017-07-29T04:07:54.648Z,736
2017-07-29T04:08:54.344Z,780
2017-07-29T04:09:54.953Z,824
2017-07-29T04:10:54.648Z,860
2017-07-29T04:11:54.647Z,908
2017-07-29T04:12:54.949Z,956
2017-07-29T04:13:54.947Z,1000
2017-07-29T04:14:54.651Z,1048
2017-07-29T04:15:54.951Z,1092
2017-07-29T04:16:54.958Z,1116
2017-07-29T04:17:54.648Z,1156
2017-07-29T04:18:54.654Z,1212
2017-07-29T04:19:54.653Z,1264
2017-07-29T04:20:54.656Z,1312
2017-07-29T04:21:54.957Z,1360
2017-07-29T04:22:54.959Z,1540
2017-07-29T04:23:54.958Z,2004
2017-07-29T04:24:54.963Z,2608
2017-07-29T04:25:54.672Z,2884
2017-07-29T04:26:54.964Z,3040
2017-07-29T04:27:54.966Z,3180
2017-07-29T04:28:54.981Z,3304
2017-07-29T04:29:54.967Z,3392
2017-07-29T04:30:54.670Z,3532
2017-07-29T04:31:55.020Z,3680
2017-07-29T04:32:54.971Z,3820
2017-07-29T04:33:54.978Z,3920
2017-07-29T04:34:54.974Z,4200
2017-07-29T04:35:54.977Z,4276
2017-07-29T04:36:54.985Z,4376
2017-07-29T04:37:54.985Z,4560
2017-07-29T04:38:54.987Z,4700
2017-07-29T04:39:54.997Z,4848
2017-07-29T04:40:54.701Z,4992
2017-07-29T04:41:54.997Z,5056
2017-07-29T04:42:55.000Z,5276
2017-07-29T04:43:54.702Z,5384
2017-07-29T04:44:55.007Z,5572
2017-07-29T04:45:54.711Z,5568
2017-07-29T04:46:58.373Z,5724
2017-07-29T04:47:55.011Z,5696
2017-07-29T04:48:55.021Z,5964
2017-07-29T04:49:54.725Z,6120
2017-07-29T04:50:54.721Z,5756
2017-07-29T04:51:54.730Z,5088
2017-07-29T04:52:55.033Z,4632
2017-07-29T04:53:55.048Z,4236
2017-07-29T04:54:54.764Z,4184
2017-07-29T04:55:55.041Z,4672
2017-07-29T04:56:55.068Z,5228
2017-07-29T04:57:55.060Z,5492
2017-07-29T04:58:55.063Z,5904
2017-07-29T04:59:54.774Z,6208
2017-07-29T05:00:55.064Z,6272
2017-07-29T05:01:57.876Z,6312
2017-07-29T05:02:55.079Z,6204
2017-07-29T05:03:55.107Z,6108
2017-07-29T05:04:54.793Z,4116
2017-07-29T05:05:55.099Z,4000
2017-07-29T05:06:55.911Z,4872
2017-07-29T05:07:55.107Z,4736
2017-07-29T05:08:55.110Z,4464
2017-07-29T05:09:55.114Z,4284
2017-07-29T05:10:55.105Z,4192
2017-07-29T05:11:54.820Z,4144
2017-07-29T05:12:55.123Z,4092
2017-07-29T05:13:55.144Z,4080
2017-07-29T05:14:55.129Z,4096
2017-07-29T05:15:55.145Z,4152
2017-07-29T05:16:58.643Z,7724
2017-07-29T05:17:55.152Z,4360
2017-07-29T05:18:54.847Z,4472
2017-07-29T05:19:54.867Z,4548
2017-07-29T05:20:54.861Z,4636
2017-07-29T05:21:54.874Z,4744
2017-07-29T05:22:55.174Z,4772
2017-07-29T05:23:55.163Z,4716
2017-07-29T05:24:55.174Z,4616
2017-07-29T05:25:54.874Z,4532
2017-07-29T05:26:55.174Z,4376
2017-07-29T05:27:54.870Z,4264
2017-07-29T05:28:55.186Z,10404
2017-07-29T05:29:54.876Z,4480
2017-07-29T05:30:54.888Z,4176
2017-07-29T05:31:54.888Z,4196
2017-07-29T05:32:56.303Z,4176
2017-07-29T05:33:55.202Z,4196
2017-07-29T05:34:55.206Z,4228
2017-07-29T05:35:55.212Z,4264
2017-07-29T05:36:55.214Z,4260
2017-07-29T05:37:54.913Z,4312
2017-07-29T05:38:55.228Z,4424
2017-07-29T05:39:55.224Z,4584
2017-07-29T05:40:54.917Z,4660
2017-07-29T05:41:54.929Z,11876
2017-07-29T05:42:55.231Z,12016
2017-07-29T05:43:54.933Z,11812
2017-07-29T05:44:54.943Z,12076
2017-07-29T05:45:54.935Z,11872
2017-07-29T05:46:55.272Z,12064
2017-07-29T05:47:57.611Z,12152
2017-07-29T05:48:54.956Z,12220
2017-07-29T05:49:55.262Z,12160
2017-07-29T05:50:54.955Z,12372
2017-07-29T05:51:55.272Z,12368
2017-07-29T05:52:54.996Z,12196
2017-07-29T05:53:54.971Z,12336
2017-07-29T05:54:55.289Z,12284
2017-07-29T05:55:54.981Z,12448
2017-07-29T05:56:55.298Z,12568
2017-07-29T05:57:54.996Z,12800
2017-07-29T05:58:54.999Z,12816
2017-07-29T05:59:54.703Z,12728
2017-07-29T06:00:55.015Z,12872
2017-07-29T06:01:55.016Z,12784
2017-07-29T06:02:55.386Z,12872
2017-07-29T06:03:55.339Z,13056
2017-07-29T06:04:55.043Z,12964
2017-07-29T06:05:55.366Z,13088
2017-07-29T06:06:55.355Z,13148
2017-07-29T06:07:55.400Z,13352
2017-07-29T06:08:54.800Z,13040
2017-07-29T06:09:55.076Z,13256
2017-07-29T06:10:55.392Z,13220
2017-07-29T06:11:55.389Z,13376
2017-07-29T06:12:55.402Z,13432
2017-07-29T06:13:55.105Z,13444
2017-07-29T06:14:55.428Z,13464
2017-07-29T06:15:55.421Z,13504
2017-07-29T06:16:55.442Z,13548
2017-07-29T06:17:55.639Z,13544
2017-07-29T06:18:55.442Z,13624
2017-07-29T06:19:55.158Z,13664
2017-07-29T06:20:55.462Z,13668
2017-07-29T06:21:55.787Z,13712
2017-07-29T06:22:55.618Z,13684
2017-07-29T06:23:55.435Z,13772
2017-07-29T06:24:55.199Z,13816
2017-07-29T06:25:55.195Z,13800
2017-07-29T06:26:55.219Z,13788
2017-07-29T06:27:55.220Z,13936
2017-07-29T06:28:55.531Z,13984
2017-07-29T06:29:55.535Z,13988
2017-07-29T06:30:55.246Z,14004
2017-07-29T06:31:55.558Z,14112
2017-07-29T06:32:55.561Z,14084
2017-07-29T06:33:55.566Z,14052
2017-07-29T06:34:55.586Z,13992
2017-07-29T06:35:55.590Z,13964
2017-07-29T06:36:55.596Z,13912
2017-07-29T06:37:55.608Z,14056
2017-07-29T06:38:55.314Z,13944
2017-07-29T06:39:55.325Z,14152
2017-07-29T06:40:55.655Z,14096
2017-07-29T06:41:55.038Z,12416
2017-07-29T06:42:55.648Z,8032
2017-07-29T06:43:55.361Z,8660
2017-07-29T06:44:55.670Z,8172
2017-07-29T06:45:55.695Z,9600
2017-07-29T06:46:55.688Z,8824
2017-07-29T06:47:55.415Z,14060
2017-07-29T06:48:55.758Z,14844
2017-07-29T06:49:55.711Z,14972
2017-07-29T06:50:55.726Z,14572
2017-07-29T06:51:55.738Z,14024
2017-07-29T06:52:55.137Z,8820
2017-07-29T06:53:55.740Z,12032
2017-07-29T06:54:55.482Z,11072
2017-07-29T06:55:55.788Z,8024
2017-07-29T06:56:55.793Z,8236
2017-07-29T06:57:55.790Z,11384
2017-07-29T06:58:55.780Z,11436
2017-07-29T06:59:55.798Z,11280
2017-07-29T07:00:55.807Z,11060
2017-07-29T07:01:55.807Z,12320
2017-07-29T07:02:55.823Z,11564
2017-07-29T07:03:56.826Z,9876
2017-07-29T07:04:55.836Z,14216
2017-07-29T07:05:55.846Z,14180
2017-07-29T07:06:55.850Z,8712
2017-07-29T07:07:55.855Z,10160
2017-07-29T07:08:55.881Z,6496
2017-07-29T07:09:55.882Z,6500
2017-07-29T07:10:55.900Z,7556
2017-07-29T07:11:55.276Z,7188
2017-07-29T07:12:55.589Z,7904
2017-07-29T07:13:55.900Z,8712
2017-07-29T07:14:55.908Z,12652
2017-07-29T07:15:55.313Z,8368
2017-07-29T07:16:55.925Z,11072
2017-07-29T07:17:55.626Z,8216
2017-07-29T07:18:55.991Z,10548
2017-07-29T07:19:55.644Z,10032
2017-07-29T07:20:55.643Z,11096
2017-07-29T07:21:55.955Z,12248
2017-07-29T07:22:55.972Z,12052
2017-07-29T07:23:55.973Z,11864
2017-07-29T07:24:55.975Z,11728
2017-07-29T07:25:55.990Z,13080
2017-07-29T07:26:55.995Z,11528
2017-07-29T07:27:56.006Z,12940
2017-07-29T07:28:55.712Z,14588
2017-07-29T07:29:56.040Z,14692
2017-07-29T07:30:56.032Z,14624
2017-07-29T07:31:55.725Z,12300
2017-07-29T07:32:55.743Z,7252
2017-07-29T07:33:57.404Z,7796
2017-07-29T07:34:56.084Z,8560
2017-07-29T07:35:56.071Z,11888
2017-07-29T07:36:56.068Z,8156
2017-07-29T07:37:55.784Z,7820
2017-07-29T07:38:56.083Z,10304
2017-07-29T07:39:55.799Z,12860
2017-07-29T07:40:56.099Z,7988
2017-07-29T07:41:56.122Z,7140
2017-07-29T07:42:56.119Z,10876
2017-07-29T07:43:55.820Z,9516
2017-07-29T07:44:55.521Z,12824
2017-07-29T07:45:56.139Z,12852
2017-07-29T07:46:55.546Z,10856
2017-07-29T07:47:56.149Z,6800
2017-07-29T07:48:56.222Z,7128
2017-07-29T07:49:56.163Z,7956
2017-07-29T07:50:56.172Z,7056
2017-07-29T07:51:55.873Z,7436
2017-07-29T07:52:55.902Z,7456
2017-07-29T07:53:55.901Z,8352
2017-07-29T07:54:55.905Z,9380
2017-07-29T07:55:56.214Z,9564
2017-07-29T07:56:55.620Z,12180
2017-07-29T07:57:55.919Z,13488
2017-07-29T07:58:55.917Z,13452
2017-07-29T07:59:55.945Z,13300
2017-07-29T08:00:56.305Z,13140
2017-07-29T08:01:56.253Z,12896
2017-07-29T08:02:56.264Z,12956
2017-07-29T08:03:58.822Z,12848
2017-07-29T08:04:55.968Z,12828
2017-07-29T08:05:56.272Z,12880
2017-07-29T08:06:55.983Z,12740
2017-07-29T08:07:55.986Z,12672
2017-07-29T08:08:56.308Z,12560
2017-07-29T08:09:56.000Z,12404
2017-07-29T08:10:56.008Z,12320
2017-07-29T08:11:55.723Z,12252
2017-07-29T08:12:56.030Z,12276
2017-07-29T08:13:56.045Z,12376
2017-07-29T08:14:56.349Z,12532
2017-07-29T08:15:56.057Z,12388
2017-07-29T08:16:56.089Z,12364
2017-07-29T08:17:56.378Z,12368
2017-07-29T08:18:56.407Z,12364
2017-07-29T08:19:56.095Z,12248
2017-07-29T08:20:56.405Z,12176
2017-07-29T08:21:56.413Z,12716
2017-07-29T08:22:56.427Z,12952
2017-07-29T08:23:55.831Z,13128
2017-07-29T08:24:56.136Z,13000
2017-07-29T08:25:56.466Z,13320
2017-07-29T08:26:56.469Z,13728
2017-07-29T08:27:56.475Z,13632
2017-07-29T08:28:56.481Z,13632
2017-07-29T08:29:56.500Z,9364
2017-07-29T08:30:56.498Z,9256
2017-07-29T08:31:56.503Z,9364
2017-07-29T08:32:56.213Z,13940
2017-07-29T08:33:56.525Z,13040
2017-07-29T08:35:00.086Z,9760
2017-07-29T08:35:56.255Z,11792
2017-07-29T08:36:56.542Z,9784
2017-07-29T08:37:56.253Z,11744
2017-07-29T08:38:56.263Z,12244
2017-07-29T08:39:56.274Z,9740
2017-07-29T08:40:56.582Z,13028
2017-07-29T08:41:56.600Z,14268
2017-07-29T08:42:55.992Z,14980
2017-07-29T08:43:56.607Z,11876
2017-07-29T08:44:56.326Z,14220
2017-07-29T08:45:56.624Z,10380
2017-07-29T08:46:56.327Z,10600
2017-07-29T08:47:56.641Z,11800
2017-07-29T08:48:56.340Z,10192
2017-07-29T08:49:56.711Z,11560
2017-07-29T08:50:56.057Z,12968
2017-07-29T08:51:56.674Z,12592
2017-07-29T08:52:56.679Z,12372
2017-07-29T08:53:56.400Z,12040
2017-07-29T08:54:56.385Z,11776
2017-07-29T08:55:56.704Z,11516
2017-07-29T08:56:56.704Z,11312
2017-07-29T08:57:56.436Z,11552
2017-07-29T08:58:56.737Z,8340
2017-07-29T08:59:56.428Z,8360
2017-07-29T09:00:56.741Z,9276
2017-07-29T09:01:56.472Z,11352
2017-07-29T09:02:56.755Z,11076
2017-07-29T09:03:56.761Z,11052
2017-07-29T09:04:57.046Z,10944
2017-07-29T09:05:56.483Z,10784
2017-07-29T09:06:56.487Z,10648
2017-07-29T09:07:56.784Z,8688
2017-07-29T09:08:56.194Z,9400
2017-07-29T09:09:56.508Z,10576
2017-07-29T09:10:56.212Z,10512
2017-07-29T09:11:56.820Z,10416
2017-07-29T09:12:56.993Z,10368
2017-07-29T09:13:56.709Z,10312
2017-07-29T09:14:56.283Z,10152
2017-07-29T09:15:56.106Z,9888
2017-07-29T09:16:56.670Z,9656
2017-07-29T09:17:56.626Z,9440
2017-07-29T09:18:56.967Z,9164
2017-07-29T09:19:57.212Z,9020
2017-07-29T09:20:57.040Z,8824
2017-07-29T09:21:56.890Z,8772
2017-07-29T09:22:56.894Z,8612
2017-07-29T09:23:56.898Z,8588
2017-07-29T09:24:56.934Z,8712
2017-07-29T09:25:56.935Z,8772
2017-07-29T09:26:56.920Z,8836
2017-07-29T09:27:56.939Z,8952
2017-07-29T09:28:56.942Z,9168
2017-07-29T09:29:56.946Z,9116
2017-07-29T09:30:56.665Z,8520
2017-07-29T09:31:56.661Z,8916
2017-07-29T09:32:56.681Z,8404
2017-07-29T09:33:56.971Z,8716
2017-07-29T09:34:56.664Z,8820
2017-07-29T09:35:58.123Z,8584
2017-07-29T09:36:56.998Z,8308
2017-07-29T09:37:56.999Z,8664
2017-07-29T09:38:57.002Z,9068
2017-07-29T09:39:57.006Z,9476
2017-07-29T09:40:57.007Z,9656
2017-07-29T09:41:56.724Z,9676
2017-07-29T09:42:57.038Z,9732
2017-07-29T09:43:56.746Z,9640
2017-07-29T09:44:56.731Z,8892
2017-07-29T09:45:56.733Z,8812
2017-07-29T09:46:56.730Z,8540
2017-07-29T09:47:57.043Z,8492
2017-07-29T09:48:57.050Z,8464
2017-07-29T09:49:56.761Z,8552
2017-07-29T09:50:57.352Z,8452
2017-07-29T09:51:57.638Z,8212
2017-07-29T09:52:57.493Z,7944
2017-07-29T09:53:56.774Z,7760
2017-07-29T09:54:56.820Z,6292
2017-07-29T09:55:56.798Z,7464
2017-07-29T09:56:56.797Z,7600
2017-07-29T09:57:56.204Z,7900
2017-07-29T09:58:56.800Z,8124
2017-07-29T09:59:57.111Z,8352
2017-07-29T10:00:56.823Z,6608
2017-07-29T10:01:56.821Z,8672
2017-07-29T10:02:57.136Z,8620
2017-07-29T10:03:57.147Z,8536
2017-07-29T10:04:57.147Z,8224
2017-07-29T10:06:01.263Z,7792
2017-07-29T10:06:57.171Z,7604
2017-07-29T10:07:57.160Z,7644
2017-07-29T10:08:57.191Z,7464
2017-07-29T10:09:56.875Z,7376
2017-07-29T10:10:56.882Z,7332
2017-07-29T10:11:57.186Z,7012
2017-07-29T10:12:56.592Z,6492
2017-07-29T10:13:57.198Z,5796
2017-07-29T10:14:57.202Z,6344
2017-07-29T10:15:56.929Z,4724
2017-07-29T10:16:57.227Z,5404
2017-07-29T10:17:57.218Z,6364
2017-07-29T10:18:56.934Z,6200
2017-07-29T10:19:56.932Z,5896
2017-07-29T10:20:56.683Z,6564
2017-07-29T10:21:57.248Z,6580
2017-07-29T10:22:56.659Z,6516
2017-07-29T10:23:56.957Z,6520
2017-07-29T10:24:56.961Z,6528
2017-07-29T10:25:56.968Z,6540
2017-07-29T10:26:56.982Z,6592
2017-07-29T10:27:57.282Z,6532
2017-07-29T10:28:57.282Z,6424
2017-07-29T10:29:57.295Z,6136
2017-07-29T10:30:57.302Z,6508
2017-07-29T10:31:57.003Z,6456
2017-07-29T10:32:57.007Z,6108
2017-07-29T10:33:57.310Z,6576
2017-07-29T10:34:57.014Z,6632
2017-07-29T10:35:57.875Z,6372
2017-07-29T10:36:57.328Z,6268
2017-07-29T10:37:57.330Z,6516
2017-07-29T10:38:57.343Z,5460
2017-07-29T10:39:57.051Z,5564
2017-07-29T10:40:57.055Z,6420
2017-07-29T10:41:57.062Z,6420
2017-07-29T10:42:57.361Z,6532
2017-07-29T10:43:57.368Z,6448
2017-07-29T10:44:57.378Z,6472
2017-07-29T10:45:56.779Z,6384
2017-07-29T10:46:57.393Z,6484
2017-07-29T10:47:57.088Z,6260
2017-07-29T10:48:57.121Z,6884
2017-07-29T10:49:57.201Z,6972
2017-07-29T10:50:57.423Z,6760
2017-07-29T10:51:57.166Z,6764
2017-07-29T10:52:57.435Z,6412
2017-07-29T10:53:57.129Z,6216
2017-07-29T10:54:57.440Z,6336
2017-07-29T10:55:57.454Z,6276
2017-07-29T10:56:57.147Z,6312
2017-07-29T10:57:57.149Z,6016
2017-07-29T10:58:57.151Z,5412
2017-07-29T10:59:57.483Z,5560
2017-07-29T11:00:57.171Z,5408
2017-07-29T11:01:56.880Z,5432
2017-07-29T11:02:57.483Z,5688
2017-07-29T11:03:57.192Z,5464
2017-07-29T11:04:57.195Z,5248
2017-07-29T11:05:57.202Z,5748
2017-07-29T11:06:57.933Z,6008
2017-07-29T11:07:57.206Z,6108
2017-07-29T11:08:57.222Z,6028
2017-07-29T11:09:57.214Z,5964
2017-07-29T11:10:57.228Z,6060
2017-07-29T11:11:57.242Z,6264
2017-07-29T11:12:57.244Z,6448
2017-07-29T11:13:57.244Z,6248
2017-07-29T11:14:57.251Z,6056
2017-07-29T11:15:57.558Z,5936
2017-07-29T11:16:57.567Z,6264
2017-07-29T11:17:57.272Z,6392
2017-07-29T11:18:57.571Z,6140
2017-07-29T11:19:57.590Z,6156
2017-07-29T11:20:57.288Z,6128
2017-07-29T11:21:57.638Z,6064
2017-07-29T11:22:57.597Z,5908
2017-07-29T11:23:57.625Z,5724
2017-07-29T11:24:57.339Z,5068
2017-07-29T11:25:57.395Z,5144
2017-07-29T11:26:57.713Z,5480
2017-07-29T11:27:57.025Z,4696
2017-07-29T11:28:57.035Z,5044
2017-07-29T11:29:57.246Z,4844
2017-07-29T11:30:57.949Z,4724
2017-07-29T11:31:57.605Z,4264
2017-07-29T11:32:57.660Z,3792
2017-07-29T11:33:57.084Z,4016
2017-07-29T11:34:57.372Z,4144
2017-07-29T11:35:57.682Z,4476
2017-07-29T11:36:59.489Z,4860
2017-07-29T11:37:57.085Z,4928
2017-07-29T11:38:57.717Z,5008
2017-07-29T11:39:57.692Z,5672
2017-07-29T11:40:57.703Z,5640
2017-07-29T11:41:57.717Z,5552
2017-07-29T11:42:57.712Z,5288
2017-07-29T11:43:57.432Z,5080
2017-07-29T11:44:57.118Z,5432
2017-07-29T11:45:57.737Z,5348
2017-07-29T11:46:57.740Z,5248
2017-07-29T11:47:57.799Z,5332
2017-07-29T11:48:57.750Z,5516
2017-07-29T11:49:57.756Z,5516
2017-07-29T11:50:57.759Z,5252
2017-07-29T11:51:57.830Z,5484
2017-07-29T11:52:57.160Z,5468
2017-07-29T11:53:57.168Z,5524
2017-07-29T11:54:57.476Z,5604
2017-07-29T11:55:57.783Z,5584
2017-07-29T11:56:57.804Z,5560
2017-07-29T11:57:57.192Z,5528
2017-07-29T11:58:57.203Z,5548
2017-07-29T11:59:57.828Z,5548
2017-07-29T12:00:57.822Z,5516
2017-07-29T12:01:57.285Z,5548
2017-07-29T12:02:57.824Z,5560
2017-07-29T12:03:57.548Z,5468
2017-07-29T12:04:57.845Z,5424
2017-07-29T12:05:57.932Z,5392
2017-07-29T12:06:58.928Z,5352
2017-07-29T12:07:57.254Z,5324
2017-07-29T12:08:57.586Z,5352
2017-07-29T12:09:57.879Z,5280
2017-07-29T12:10:57.907Z,5104
2017-07-29T12:11:57.270Z,5244
2017-07-29T12:12:57.886Z,5240
2017-07-29T12:13:56.985Z,5256
2017-07-29T12:14:57.593Z,5248
2017-07-29T12:15:57.623Z,5232
2017-07-29T12:16:57.615Z,5232
2017-07-29T12:17:57.616Z,5252
2017-07-29T12:18:57.943Z,5276
2017-07-29T12:19:57.318Z,5376
2017-07-29T12:20:57.627Z,5364
2017-07-29T12:21:57.330Z,5464
2017-07-29T12:22:57.638Z,5552
2017-07-29T12:23:57.942Z,5628
2017-07-29T12:24:57.967Z,5692
2017-07-29T12:25:57.966Z,5740
2017-07-29T12:26:57.972Z,5804
2017-07-29T12:27:57.363Z,5884
2017-07-29T12:28:57.974Z,6032
2017-07-29T12:29:57.693Z,5720
2017-07-29T12:30:57.995Z,5964
2017-07-29T12:31:57.684Z,6068
2017-07-29T12:32:58.003Z,6424
2017-07-29T12:33:58.013Z,6568
2017-07-29T12:34:57.734Z,6424
2017-07-29T12:35:58.017Z,6860
2017-07-29T12:36:57.113Z,6828
2017-07-29T12:37:58.038Z,7028
2017-07-29T12:38:57.730Z,6976
2017-07-29T12:39:58.045Z,6984
2017-07-29T12:40:57.771Z,6916
2017-07-29T12:41:57.466Z,6888
2017-07-29T12:42:58.052Z,6816
2017-07-29T12:43:58.059Z,6704
2017-07-29T12:44:57.763Z,6644
2017-07-29T12:45:57.769Z,6612
2017-07-29T12:46:58.086Z,6576
2017-07-29T12:47:57.782Z,6352
2017-07-29T12:48:58.141Z,6480
2017-07-29T12:49:57.807Z,6360
2017-07-29T12:50:58.111Z,6220
2017-07-29T12:51:58.114Z,6080
2017-07-29T12:52:58.111Z,5944
2017-07-29T12:53:57.845Z,5800
2017-07-29T12:54:57.843Z,5684
2017-07-29T12:55:57.838Z,5588
2017-07-29T12:56:58.145Z,5520
2017-07-29T12:57:58.170Z,5440
2017-07-29T12:58:58.212Z,5396
2017-07-29T12:59:57.864Z,5336
2017-07-29T13:00:57.570Z,5284
2017-07-29T13:01:57.894Z,5308
2017-07-29T13:02:57.267Z,5300
2017-07-29T13:03:58.189Z,5276
2017-07-29T13:04:58.215Z,5296
2017-07-29T13:05:58.192Z,5288
2017-07-29T13:06:57.606Z,5252
2017-07-29T13:07:59.335Z,5256
2017-07-29T13:08:58.242Z,5240
2017-07-29T13:09:57.927Z,5140
2017-07-29T13:10:57.633Z,5132
2017-07-29T13:11:57.953Z,5128
2017-07-29T13:12:57.939Z,5216
2017-07-29T13:13:57.654Z,5272
2017-07-29T13:14:57.947Z,5212
2017-07-29T13:15:57.969Z,5232
2017-07-29T13:16:58.271Z,5284
2017-07-29T13:17:58.298Z,5312
2017-07-29T13:18:58.288Z,5400
2017-07-29T13:19:58.291Z,5444
2017-07-29T13:20:58.293Z,5484
2017-07-29T13:21:58.299Z,5508
2017-07-29T13:22:58.197Z,5488
2017-07-29T13:23:57.698Z,5424
2017-07-29T13:24:58.306Z,5308
2017-07-29T13:25:58.087Z,5200
2017-07-29T13:26:58.089Z,5056
2017-07-29T13:27:58.027Z,4968
2017-07-29T13:28:58.347Z,4924
2017-07-29T13:29:57.746Z,4892
2017-07-29T13:30:58.413Z,4856
2017-07-29T13:31:57.774Z,4832
2017-07-29T13:32:57.904Z,4812
2017-07-29T13:33:58.074Z,4784
2017-07-29T13:34:58.369Z,4752
2017-07-29T13:35:58.406Z,4724